sensor_id;sensor_type;location;lat;lon;timestamp;temperature;humidity
4757;DHT22;2392;52.578;13.426;2022-08-21T00:00:29;20.00;99.90
4757;DHT22;2392;52.578;13.426;2022-08-21T00:02:59;19.90;99.90
4757;DHT22;2392;52.578;13.426;2022-08-21T00:05:28;19.90;99.90
4757;DHT22;2392;52.578;13.426;2022-08-21T00:07:55;19.90;99.90
4757;DHT22;2392;52.578;13.426;2022-08-21T00:10:24;19.90;99.90
4757;DHT22;2392;52.578;13.426;2022-08-21T00:12:52;19.90;99.90
4757;DHT22;2392;52.578;13.426;2022-08-21T00:15:23;19.90;99.90
4757;DHT22;2392;52.578;13.426;2022-08-21T00:17:51;19.80;99.90
4757;DHT22;2392;52.578;13.426;2022-08-21T00:20:18;19.80;99.90
4757;DHT22;2392;52.578;13.426;2022-08-21T00:22:46;19.80;99.90
4757;DHT22;2392;52.578;13.426;2022-08-21T00:25:14;19.80;99.90
4757;DHT22;2392;52.578;13.426;2022-08-21T00:27:43;19.80;99.90
4757;DHT22;2392;52.578;13.426;2022-08-21T00:30:20;19.80;99.90
4757;DHT22;2392;52.578;13.426;2022-08-21T00:32:48;19.70;99.90
4757;DHT22;2392;52.578;13.426;2022-08-21T00:35:18;19.70;99.90
4757;DHT22;2392;52.578;13.426;2022-08-21T00:37:48;19.70;99.90
4757;DHT22;2392;52.578;13.426;2022-08-21T00:40:17;19.70;99.90
4757;DHT22;2392;52.578;13.426;2022-08-21T00:42:46;19.70;99.90
4757;DHT22;2392;52.578;13.426;2022-08-21T00:45:13;19.60;99.90
4757;DHT22;2392;52.578;13.426;2022-08-21T00:47:40;19.60;99.90
4757;DHT22;2392;52.578;13.426;2022-08-21T00:50:09;19.60;99.90
4757;DHT22;2392;52.578;13.426;2022-08-21T00:52:37;19.60;99.90
4757;DHT22;2392;52.578;13.426;2022-08-21T00:55:05;19.60;99.90
4757;DHT22;2392;52.578;13.426;2022-08-21T00:57:38;19.60;99.90
4757;DHT22;2392;52.578;13.426;2022-08-21T01:00:10;19.60;99.90
4757;DHT22;2392;52.578;13.426;2022-08-21T01:02:37;19.60;99.90
4757;DHT22;2392;52.578;13.426;2022-08-21T01:05:06;19.60;99.90
4757;DHT22;2392;52.578;13.426;2022-08-21T01:07:33;19.60;99.90
4757;DHT22;2392;52.578;13.426;2022-08-21T01:10:00;19.50;99.90
4757;DHT22;2392;52.578;13.426;2022-08-21T01:12:27;19.50;99.90
4757;DHT22;2392;52.578;13.426;2022-08-21T01:14:54;19.50;99.90
4757;DHT22;2392;52.578;13.426;2022-08-21T01:17:22;19.50;99.90
4757;DHT22;2392;52.578;13.426;2022-08-21T01:19:49;19.50;99.90
4757;DHT22;2392;52.578;13.426;2022-08-21T01:22:18;19.40;99.90
4757;DHT22;2392;52.578;13.426;2022-08-21T01:24:45;19.40;99.90
4757;DHT22;2392;52.578;13.426;2022-08-21T01:27:12;19.40;99.90
4757;DHT22;2392;52.578;13.426;2022-08-21T01:29:42;19.40;99.90
4757;DHT22;2392;52.578;13.426;2022-08-21T01:32:14;19.40;99.90
4757;DHT22;2392;52.578;13.426;2022-08-21T01:34:44;19.40;99.90
4757;DHT22;2392;52.578;13.426;2022-08-21T01:37:12;19.30;99.90
4757;DHT22;2392;52.578;13.426;2022-08-21T01:39:41;19.30;99.90
4757;DHT22;2392;52.578;13.426;2022-08-21T01:42:08;19.30;99.90
4757;DHT22;2392;52.578;13.426;2022-08-21T01:44:35;19.30;99.90
4757;DHT22;2392;52.578;13.426;2022-08-21T01:47:05;19.30;99.90
4757;DHT22;2392;52.578;13.426;2022-08-21T01:49:33;19.20;99.90
4757;DHT22;2392;52.578;13.426;2022-08-21T01:52:00;19.20;99.90
4757;DHT22;2392;52.578;13.426;2022-08-21T01:54:27;19.20;99.90
4757;DHT22;2392;52.578;13.426;2022-08-21T01:56:56;19.20;99.90
4757;DHT22;2392;52.578;13.426;2022-08-21T01:59:24;19.20;99.90
4757;DHT22;2392;52.578;13.426;2022-08-21T02:01:51;19.10;99.90
4757;DHT22;2392;52.578;13.426;2022-08-21T02:04:20;19.10;99.90
4757;DHT22;2392;52.578;13.426;2022-08-21T02:06:47;19.10;99.90
4757;DHT22;2392;52.578;13.426;2022-08-21T02:09:14;19.10;99.90
4757;DHT22;2392;52.578;13.426;2022-08-21T02:11:42;19.10;99.90
4757;DHT22;2392;52.578;13.426;2022-08-21T02:14:11;19.10;99.90
4757;DHT22;2392;52.578;13.426;2022-08-21T02:16:40;19.00;99.90
4757;DHT22;2392;52.578;13.426;2022-08-21T02:19:08;19.00;99.90
4757;DHT22;2392;52.578;13.426;2022-08-21T02:21:35;19.00;99.90
4757;DHT22;2392;52.578;13.426;2022-08-21T02:24:03;19.00;99.90
4757;DHT22;2392;52.578;13.426;2022-08-21T02:26:30;19.00;99.90
4757;DHT22;2392;52.578;13.426;2022-08-21T02:28:57;18.90;99.90
4757;DHT22;2392;52.578;13.426;2022-08-21T02:31:25;18.90;99.90
4757;DHT22;2392;52.578;13.426;2022-08-21T02:33:52;18.90;99.90
4757;DHT22;2392;52.578;13.426;2022-08-21T02:36:19;18.80;99.90
4757;DHT22;2392;52.578;13.426;2022-08-21T02:38:46;18.80;99.90
4757;DHT22;2392;52.578;13.426;2022-08-21T02:41:16;18.80;99.90
4757;DHT22;2392;52.578;13.426;2022-08-21T02:43:43;18.70;99.90
4757;DHT22;2392;52.578;13.426;2022-08-21T02:46:13;18.70;99.90
4757;DHT22;2392;52.578;13.426;2022-08-21T02:48:42;18.70;99.90
4757;DHT22;2392;52.578;13.426;2022-08-21T02:51:12;18.60;99.90
4757;DHT22;2392;52.578;13.426;2022-08-21T02:53:40;18.70;99.90
4757;DHT22;2392;52.578;13.426;2022-08-21T02:56:09;18.60;99.90
4757;DHT22;2392;52.578;13.426;2022-08-21T02:58:39;18.60;99.90
4757;DHT22;2392;52.578;13.426;2022-08-21T03:01:08;18.60;99.90
4757;DHT22;2392;52.578;13.426;2022-08-21T03:03:36;18.50;99.90
4757;DHT22;2392;52.578;13.426;2022-08-21T03:06:06;18.50;99.90
4757;DHT22;2392;52.578;13.426;2022-08-21T03:08:34;18.50;99.90
4757;DHT22;2392;52.578;13.426;2022-08-21T03:11:02;18.50;99.90
4757;DHT22;2392;52.578;13.426;2022-08-21T03:13:29;18.50;99.90
4757;DHT22;2392;52.578;13.426;2022-08-21T03:15:56;18.50;99.90
4757;DHT22;2392;52.578;13.426;2022-08-21T03:18:23;18.40;99.90
4757;DHT22;2392;52.578;13.426;2022-08-21T03:20:50;18.40;99.90
4757;DHT22;2392;52.578;13.426;2022-08-21T03:23:19;18.40;99.90
4757;DHT22;2392;52.578;13.426;2022-08-21T03:25:47;18.40;99.90
4757;DHT22;2392;52.578;13.426;2022-08-21T03:28:17;18.30;99.90
4757;DHT22;2392;52.578;13.426;2022-08-21T03:30:45;18.30;99.90
4757;DHT22;2392;52.578;13.426;2022-08-21T03:33:13;18.30;99.90
4757;DHT22;2392;52.578;13.426;2022-08-21T03:35:41;18.30;99.90
4757;DHT22;2392;52.578;13.426;2022-08-21T03:38:09;18.20;99.90
4757;DHT22;2392;52.578;13.426;2022-08-21T03:40:39;18.20;99.90
4757;DHT22;2392;52.578;13.426;2022-08-21T03:43:06;18.20;99.90
4757;DHT22;2392;52.578;13.426;2022-08-21T03:45:34;18.20;99.90
4757;DHT22;2392;52.578;13.426;2022-08-21T03:48:03;18.20;99.90
4757;DHT22;2392;52.578;13.426;2022-08-21T03:50:33;18.10;99.90
4757;DHT22;2392;52.578;13.426;2022-08-21T03:53:00;18.10;99.90
4757;DHT22;2392;52.578;13.426;2022-08-21T03:55:27;18.10;99.90
4757;DHT22;2392;52.578;13.426;2022-08-21T03:57:56;18.10;99.90
4757;DHT22;2392;52.578;13.426;2022-08-21T04:00:24;18.10;99.90
4757;DHT22;2392;52.578;13.426;2022-08-21T04:02:51;18.00;99.90
4757;DHT22;2392;52.578;13.426;2022-08-21T04:05:19;18.00;99.90
4757;DHT22;2392;52.578;13.426;2022-08-21T04:07:54;18.00;99.90
4757;DHT22;2392;52.578;13.426;2022-08-21T04:10:22;18.00;99.90
4757;DHT22;2392;52.578;13.426;2022-08-21T04:12:49;17.90;99.90
4757;DHT22;2392;52.578;13.426;2022-08-21T04:15:18;17.90;99.90
4757;DHT22;2392;52.578;13.426;2022-08-21T04:17:45;17.90;99.90
4757;DHT22;2392;52.578;13.426;2022-08-21T04:20:12;17.90;99.90
4757;DHT22;2392;52.578;13.426;2022-08-21T04:22:39;17.90;99.90
4757;DHT22;2392;52.578;13.426;2022-08-21T04:25:07;17.80;99.90
4757;DHT22;2392;52.578;13.426;2022-08-21T04:27:34;17.80;99.90
4757;DHT22;2392;52.578;13.426;2022-08-21T04:30:00;17.80;99.90
4757;DHT22;2392;52.578;13.426;2022-08-21T04:32:29;17.80;99.90
4757;DHT22;2392;52.578;13.426;2022-08-21T04:35:00;17.80;99.90
4757;DHT22;2392;52.578;13.426;2022-08-21T04:37:27;17.80;99.90
4757;DHT22;2392;52.578;13.426;2022-08-21T04:39:54;17.80;99.90
4757;DHT22;2392;52.578;13.426;2022-08-21T04:42:23;17.80;99.90
4757;DHT22;2392;52.578;13.426;2022-08-21T04:44:51;17.70;99.90
4757;DHT22;2392;52.578;13.426;2022-08-21T04:47:19;17.80;99.90
4757;DHT22;2392;52.578;13.426;2022-08-21T04:49:47;17.80;99.90
4757;DHT22;2392;52.578;13.426;2022-08-21T04:52:17;17.70;99.90
4757;DHT22;2392;52.578;13.426;2022-08-21T04:54:45;17.70;99.90
4757;DHT22;2392;52.578;13.426;2022-08-21T04:57:16;17.70;99.90
4757;DHT22;2392;52.578;13.426;2022-08-21T04:59:47;17.70;99.90
4757;DHT22;2392;52.578;13.426;2022-08-21T05:02:15;17.70;99.90
4757;DHT22;2392;52.578;13.426;2022-08-21T05:04:47;17.70;99.90
4757;DHT22;2392;52.578;13.426;2022-08-21T05:07:18;17.70;99.90
4757;DHT22;2392;52.578;13.426;2022-08-21T05:09:46;17.70;99.90
4757;DHT22;2392;52.578;13.426;2022-08-21T05:12:16;17.70;99.90
4757;DHT22;2392;52.578;13.426;2022-08-21T05:14:43;17.70;99.90
4757;DHT22;2392;52.578;13.426;2022-08-21T05:17:10;17.70;99.90
4757;DHT22;2392;52.578;13.426;2022-08-21T05:19:37;17.70;99.90
4757;DHT22;2392;52.578;13.426;2022-08-21T05:22:05;17.70;99.90
4757;DHT22;2392;52.578;13.426;2022-08-21T05:24:32;17.70;99.90
4757;DHT22;2392;52.578;13.426;2022-08-21T05:26:59;17.70;99.90
4757;DHT22;2392;52.578;13.426;2022-08-21T05:29:27;17.80;99.90
4757;DHT22;2392;52.578;13.426;2022-08-21T05:31:56;17.80;99.90
4757;DHT22;2392;52.578;13.426;2022-08-21T05:34:24;17.80;99.90
4757;DHT22;2392;52.578;13.426;2022-08-21T05:36:50;17.80;99.90
4757;DHT22;2392;52.578;13.426;2022-08-21T05:39:19;17.80;99.90
4757;DHT22;2392;52.578;13.426;2022-08-21T05:41:45;17.80;99.90
4757;DHT22;2392;52.578;13.426;2022-08-21T05:44:13;17.90;99.90
4757;DHT22;2392;52.578;13.426;2022-08-21T05:46:40;17.90;99.90
4757;DHT22;2392;52.578;13.426;2022-08-21T05:49:07;17.90;99.90
4757;DHT22;2392;52.578;13.426;2022-08-21T05:51:34;17.90;99.90
4757;DHT22;2392;52.578;13.426;2022-08-21T05:54:01;17.90;99.90
4757;DHT22;2392;52.578;13.426;2022-08-21T05:56:29;17.90;99.90
4757;DHT22;2392;52.578;13.426;2022-08-21T05:58:56;18.00;99.90
4757;DHT22;2392;52.578;13.426;2022-08-21T06:01:24;18.00;99.90
4757;DHT22;2392;52.578;13.426;2022-08-21T06:03:51;18.00;99.90
4757;DHT22;2392;52.578;13.426;2022-08-21T06:06:17;18.00;99.90
4757;DHT22;2392;52.578;13.426;2022-08-21T06:08:44;18.00;99.90
4757;DHT22;2392;52.578;13.426;2022-08-21T06:11:11;18.10;99.90
4757;DHT22;2392;52.578;13.426;2022-08-21T06:13:40;18.10;99.90
4757;DHT22;2392;52.578;13.426;2022-08-21T06:16:09;18.10;99.90
4757;DHT22;2392;52.578;13.426;2022-08-21T06:18:37;18.10;99.90
4757;DHT22;2392;52.578;13.426;2022-08-21T06:21:04;18.10;99.90
4757;DHT22;2392;52.578;13.426;2022-08-21T06:23:31;18.10;99.90
4757;DHT22;2392;52.578;13.426;2022-08-21T06:26:00;18.20;99.90
4757;DHT22;2392;52.578;13.426;2022-08-21T06:28:27;18.20;99.90
4757;DHT22;2392;52.578;13.426;2022-08-21T06:30:55;18.20;99.90
4757;DHT22;2392;52.578;13.426;2022-08-21T06:33:22;18.30;99.90
4757;DHT22;2392;52.578;13.426;2022-08-21T06:35:49;18.30;99.90
4757;DHT22;2392;52.578;13.426;2022-08-21T06:38:16;18.30;99.90
4757;DHT22;2392;52.578;13.426;2022-08-21T06:40:43;18.40;99.90
4757;DHT22;2392;52.578;13.426;2022-08-21T06:43:12;18.40;99.90
4757;DHT22;2392;52.578;13.426;2022-08-21T06:45:39;18.40;99.90
4757;DHT22;2392;52.578;13.426;2022-08-21T06:48:07;18.50;99.90
4757;DHT22;2392;52.578;13.426;2022-08-21T06:50:35;18.50;99.90
4757;DHT22;2392;52.578;13.426;2022-08-21T06:53:05;18.50;99.90
4757;DHT22;2392;52.578;13.426;2022-08-21T06:55:32;18.60;99.90
4757;DHT22;2392;52.578;13.426;2022-08-21T06:57:59;18.60;99.90
4757;DHT22;2392;52.578;13.426;2022-08-21T07:00:27;18.60;99.90
4757;DHT22;2392;52.578;13.426;2022-08-21T07:02:54;18.70;99.90
4757;DHT22;2392;52.578;13.426;2022-08-21T07:05:24;18.70;99.90
4757;DHT22;2392;52.578;13.426;2022-08-21T07:07:51;18.80;99.90
4757;DHT22;2392;52.578;13.426;2022-08-21T07:10:18;18.80;99.90
4757;DHT22;2392;52.578;13.426;2022-08-21T07:12:45;18.80;99.90
4757;DHT22;2392;52.578;13.426;2022-08-21T07:15:12;18.90;99.90
4757;DHT22;2392;52.578;13.426;2022-08-21T07:17:39;18.90;99.90
4757;DHT22;2392;52.578;13.426;2022-08-21T07:20:07;18.90;99.90
4757;DHT22;2392;52.578;13.426;2022-08-21T07:22:36;19.00;99.90
4757;DHT22;2392;52.578;13.426;2022-08-21T07:25:05;19.10;99.90
4757;DHT22;2392;52.578;13.426;2022-08-21T07:27:32;19.10;99.90
4757;DHT22;2392;52.578;13.426;2022-08-21T07:29:59;19.20;99.90
4757;DHT22;2392;52.578;13.426;2022-08-21T07:32:26;19.30;99.90
4757;DHT22;2392;52.578;13.426;2022-08-21T07:34:53;19.30;99.90
4757;DHT22;2392;52.578;13.426;2022-08-21T07:37:20;19.40;99.90
4757;DHT22;2392;52.578;13.426;2022-08-21T07:39:48;19.50;99.90
4757;DHT22;2392;52.578;13.426;2022-08-21T07:42:16;19.50;99.90
4757;DHT22;2392;52.578;13.426;2022-08-21T07:44:43;19.60;99.90
4757;DHT22;2392;52.578;13.426;2022-08-21T07:47:10;19.60;99.90
4757;DHT22;2392;52.578;13.426;2022-08-21T07:49:37;19.70;99.90
4757;DHT22;2392;52.578;13.426;2022-08-21T07:52:04;19.70;99.90
4757;DHT22;2392;52.578;13.426;2022-08-21T07:54:31;19.80;99.90
4757;DHT22;2392;52.578;13.426;2022-08-21T07:56:59;19.90;99.90
4757;DHT22;2392;52.578;13.426;2022-08-21T07:59:26;19.90;99.90
4757;DHT22;2392;52.578;13.426;2022-08-21T08:01:53;20.00;99.90
4757;DHT22;2392;52.578;13.426;2022-08-21T08:04:20;20.00;99.90
4757;DHT22;2392;52.578;13.426;2022-08-21T08:06:47;20.10;99.90
4757;DHT22;2392;52.578;13.426;2022-08-21T08:09:13;20.10;99.90
4757;DHT22;2392;52.578;13.426;2022-08-21T08:11:41;20.10;99.90
4757;DHT22;2392;52.578;13.426;2022-08-21T08:14:10;20.20;99.90
4757;DHT22;2392;52.578;13.426;2022-08-21T08:16:37;20.20;99.90
4757;DHT22;2392;52.578;13.426;2022-08-21T08:19:04;20.30;99.90
4757;DHT22;2392;52.578;13.426;2022-08-21T08:21:31;20.40;99.90
4757;DHT22;2392;52.578;13.426;2022-08-21T08:23:59;20.40;99.90
4757;DHT22;2392;52.578;13.426;2022-08-21T08:26:26;20.50;99.90
4757;DHT22;2392;52.578;13.426;2022-08-21T08:28:53;20.50;99.90
4757;DHT22;2392;52.578;13.426;2022-08-21T08:31:21;20.60;99.90
4757;DHT22;2392;52.578;13.426;2022-08-21T08:33:49;20.70;99.90
4757;DHT22;2392;52.578;13.426;2022-08-21T08:36:17;20.80;99.90
4757;DHT22;2392;52.578;13.426;2022-08-21T08:38:45;20.80;99.90
4757;DHT22;2392;52.578;13.426;2022-08-21T08:41:15;20.90;99.90
4757;DHT22;2392;52.578;13.426;2022-08-21T08:43:47;21.10;99.90
4757;DHT22;2392;52.578;13.426;2022-08-21T08:46:18;21.20;99.90
4757;DHT22;2392;52.578;13.426;2022-08-21T08:48:50;21.20;99.90
4757;DHT22;2392;52.578;13.426;2022-08-21T08:51:23;21.30;99.90
4757;DHT22;2392;52.578;13.426;2022-08-21T08:53:54;21.40;99.90
4757;DHT22;2392;52.578;13.426;2022-08-21T08:56:29;21.30;99.90
4757;DHT22;2392;52.578;13.426;2022-08-21T08:59:01;21.40;99.90
4757;DHT22;2392;52.578;13.426;2022-08-21T09:01:28;21.40;99.90
4757;DHT22;2392;52.578;13.426;2022-08-21T09:03:57;21.50;99.90
4757;DHT22;2392;52.578;13.426;2022-08-21T09:06:34;21.50;99.90
4757;DHT22;2392;52.578;13.426;2022-08-21T09:09:15;21.60;99.90
4757;DHT22;2392;52.578;13.426;2022-08-21T09:12:00;21.60;99.90
4757;DHT22;2392;52.578;13.426;2022-08-21T09:14:50;21.60;99.90
4757;DHT22;2392;52.578;13.426;2022-08-21T09:17:31;21.70;99.90
4757;DHT22;2392;52.578;13.426;2022-08-21T09:20:16;21.80;99.90
4757;DHT22;2392;52.578;13.426;2022-08-21T09:22:54;21.80;99.90
4757;DHT22;2392;52.578;13.426;2022-08-21T09:25:26;21.80;99.90
4757;DHT22;2392;52.578;13.426;2022-08-21T09:27:54;21.80;99.90
4757;DHT22;2392;52.578;13.426;2022-08-21T09:30:27;21.80;99.90
4757;DHT22;2392;52.578;13.426;2022-08-21T09:32:54;21.80;99.90
4757;DHT22;2392;52.578;13.426;2022-08-21T09:35:24;21.80;99.90
4757;DHT22;2392;52.578;13.426;2022-08-21T09:37:54;21.80;99.90
4757;DHT22;2392;52.578;13.426;2022-08-21T09:40:29;21.80;99.90
4757;DHT22;2392;52.578;13.426;2022-08-21T09:42:58;21.80;99.90
4757;DHT22;2392;52.578;13.426;2022-08-21T09:45:26;21.90;99.90
4757;DHT22;2392;52.578;13.426;2022-08-21T09:47:53;21.90;99.90
4757;DHT22;2392;52.578;13.426;2022-08-21T09:50:22;21.90;99.90
4757;DHT22;2392;52.578;13.426;2022-08-21T09:52:53;21.90;99.90
4757;DHT22;2392;52.578;13.426;2022-08-21T09:55:30;21.90;99.90
4757;DHT22;2392;52.578;13.426;2022-08-21T09:58:16;22.00;99.90
4757;DHT22;2392;52.578;13.426;2022-08-21T10:00:43;22.10;99.90
4757;DHT22;2392;52.578;13.426;2022-08-21T10:03:13;22.10;99.90
4757;DHT22;2392;52.578;13.426;2022-08-21T10:05:51;22.20;99.90
4757;DHT22;2392;52.578;13.426;2022-08-21T10:08:22;22.30;99.90
4757;DHT22;2392;52.578;13.426;2022-08-21T10:10:53;22.50;99.90
4757;DHT22;2392;52.578;13.426;2022-08-21T10:13:28;22.60;99.90
4757;DHT22;2392;52.578;13.426;2022-08-21T10:16:07;22.70;99.90
4757;DHT22;2392;52.578;13.426;2022-08-21T10:18:38;22.90;99.90
4757;DHT22;2392;52.578;13.426;2022-08-21T10:21:17;23.00;99.90
4757;DHT22;2392;52.578;13.426;2022-08-21T10:23:58;23.20;99.90
4757;DHT22;2392;52.578;13.426;2022-08-21T10:26:35;23.30;99.90
4757;DHT22;2392;52.578;13.426;2022-08-21T10:29:09;23.40;99.90
4757;DHT22;2392;52.578;13.426;2022-08-21T10:31:49;23.40;99.90
4757;DHT22;2392;52.578;13.426;2022-08-21T10:34:28;23.50;99.90
4757;DHT22;2392;52.578;13.426;2022-08-21T10:37:06;23.50;99.90
4757;DHT22;2392;52.578;13.426;2022-08-21T10:39:41;23.60;99.90
4757;DHT22;2392;52.578;13.426;2022-08-21T10:42:22;23.60;99.90
4757;DHT22;2392;52.578;13.426;2022-08-21T10:45:00;23.80;99.90
4757;DHT22;2392;52.578;13.426;2022-08-21T10:47:33;23.90;99.90
4757;DHT22;2392;52.578;13.426;2022-08-21T10:50:08;24.30;99.90
4757;DHT22;2392;52.578;13.426;2022-08-21T10:53:00;24.90;99.90
4757;DHT22;2392;52.578;13.426;2022-08-21T10:55:33;25.40;99.90
4757;DHT22;2392;52.578;13.426;2022-08-21T10:58:07;25.90;99.90
4757;DHT22;2392;52.578;13.426;2022-08-21T11:00:40;26.30;99.90
4757;DHT22;2392;52.578;13.426;2022-08-21T11:03:11;26.50;99.90
4757;DHT22;2392;52.578;13.426;2022-08-21T11:05:43;26.60;99.00
4757;DHT22;2392;52.578;13.426;2022-08-21T11:08:15;26.50;98.60
4757;DHT22;2392;52.578;13.426;2022-08-21T11:10:48;26.40;98.30
4757;DHT22;2392;52.578;13.426;2022-08-21T11:13:19;26.50;98.20
4757;DHT22;2392;52.578;13.426;2022-08-21T11:15:56;26.70;97.60
4757;DHT22;2392;52.578;13.426;2022-08-21T11:18:27;27.00;96.60
4757;DHT22;2392;52.578;13.426;2022-08-21T11:21:03;27.50;95.40
4757;DHT22;2392;52.578;13.426;2022-08-21T11:23:39;28.30;94.10
4757;DHT22;2392;52.578;13.426;2022-08-21T11:26:13;29.20;93.30
4757;DHT22;2392;52.578;13.426;2022-08-21T11:28:47;29.80;91.10
4757;DHT22;2392;52.578;13.426;2022-08-21T11:31:28;30.20;88.50
4757;DHT22;2392;52.578;13.426;2022-08-21T11:34:08;30.80;86.90
4757;DHT22;2392;52.578;13.426;2022-08-21T11:36:46;31.50;80.90
4757;DHT22;2392;52.578;13.426;2022-08-21T11:39:24;32.20;75.90
4757;DHT22;2392;52.578;13.426;2022-08-21T11:42:01;32.80;74.50
4757;DHT22;2392;52.578;13.426;2022-08-21T11:44:41;33.20;71.30
4757;DHT22;2392;52.578;13.426;2022-08-21T11:47:17;33.60;68.70
4757;DHT22;2392;52.578;13.426;2022-08-21T11:49:57;33.70;65.80
4757;DHT22;2392;52.578;13.426;2022-08-21T11:52:31;33.80;62.10
4757;DHT22;2392;52.578;13.426;2022-08-21T11:55:03;33.80;60.10
4757;DHT22;2392;52.578;13.426;2022-08-21T11:57:36;33.70;61.00
4757;DHT22;2392;52.578;13.426;2022-08-21T12:00:08;33.30;58.50
4757;DHT22;2392;52.578;13.426;2022-08-21T12:02:47;32.80;59.50
4757;DHT22;2392;52.578;13.426;2022-08-21T12:05:25;32.10;59.00
4757;DHT22;2392;52.578;13.426;2022-08-21T12:08:02;31.40;59.20
4757;DHT22;2392;52.578;13.426;2022-08-21T12:10:33;30.50;61.10
4757;DHT22;2392;52.578;13.426;2022-08-21T12:13:09;29.70;61.40
4757;DHT22;2392;52.578;13.426;2022-08-21T12:15:37;29.10;63.60
4757;DHT22;2392;52.578;13.426;2022-08-21T12:18:06;28.70;63.80
4757;DHT22;2392;52.578;13.426;2022-08-21T12:20:37;28.20;64.70
4757;DHT22;2392;52.578;13.426;2022-08-21T12:23:18;28.00;66.60
4757;DHT22;2392;52.578;13.426;2022-08-21T12:25:48;27.60;68.80
4757;DHT22;2392;52.578;13.426;2022-08-21T12:28:27;27.40;67.30
4757;DHT22;2392;52.578;13.426;2022-08-21T12:30:56;27.10;68.60
4757;DHT22;2392;52.578;13.426;2022-08-21T12:33:27;27.00;70.10
4757;DHT22;2392;52.578;13.426;2022-08-21T12:36:03;26.80;70.70
4757;DHT22;2392;52.578;13.426;2022-08-21T12:38:34;26.70;70.20
4757;DHT22;2392;52.578;13.426;2022-08-21T12:41:10;26.70;70.60
4757;DHT22;2392;52.578;13.426;2022-08-21T12:43:42;26.60;72.10
4757;DHT22;2392;52.578;13.426;2022-08-21T12:46:15;26.50;69.70
4757;DHT22;2392;52.578;13.426;2022-08-21T12:48:48;26.50;70.30
4757;DHT22;2392;52.578;13.426;2022-08-21T12:51:21;26.70;72.50
4757;DHT22;2392;52.578;13.426;2022-08-21T12:53:51;26.90;72.40
4757;DHT22;2392;52.578;13.426;2022-08-21T12:56:20;27.00;72.50
4757;DHT22;2392;52.578;13.426;2022-08-21T12:58:51;27.10;73.10
4757;DHT22;2392;52.578;13.426;2022-08-21T13:01:23;27.20;73.90
4757;DHT22;2392;52.578;13.426;2022-08-21T13:03:52;27.00;72.90
4757;DHT22;2392;52.578;13.426;2022-08-21T13:06:22;26.80;73.90
4757;DHT22;2392;52.578;13.426;2022-08-21T13:08:57;26.80;74.90
4757;DHT22;2392;52.578;13.426;2022-08-21T13:11:25;26.80;74.70
4757;DHT22;2392;52.578;13.426;2022-08-21T13:13:54;26.70;74.20
4757;DHT22;2392;52.578;13.426;2022-08-21T13:16:24;26.60;75.30
4757;DHT22;2392;52.578;13.426;2022-08-21T13:18:55;26.50;75.40
4757;DHT22;2392;52.578;13.426;2022-08-21T13:21:28;26.40;75.90
4757;DHT22;2392;52.578;13.426;2022-08-21T13:24:10;26.30;77.60
4757;DHT22;2392;52.578;13.426;2022-08-21T13:26:37;26.20;78.50
4757;DHT22;2392;52.578;13.426;2022-08-21T13:29:08;26.20;77.80
4757;DHT22;2392;52.578;13.426;2022-08-21T13:31:38;26.20;77.40
4757;DHT22;2392;52.578;13.426;2022-08-21T13:34:06;26.10;77.10
4757;DHT22;2392;52.578;13.426;2022-08-21T13:36:39;26.10;76.20
4757;DHT22;2392;52.578;13.426;2022-08-21T13:39:09;26.10;76.50
4757;DHT22;2392;52.578;13.426;2022-08-21T13:41:40;25.90;74.90
4757;DHT22;2392;52.578;13.426;2022-08-21T13:44:16;25.90;74.90
4757;DHT22;2392;52.578;13.426;2022-08-21T13:46:44;25.90;76.00
4757;DHT22;2392;52.578;13.426;2022-08-21T13:49:14;25.90;75.90
4757;DHT22;2392;52.578;13.426;2022-08-21T13:51:42;25.90;77.30
4757;DHT22;2392;52.578;13.426;2022-08-21T13:54:23;26.00;77.20
4757;DHT22;2392;52.578;13.426;2022-08-21T13:56:51;26.10;77.50
4757;DHT22;2392;52.578;13.426;2022-08-21T13:59:29;26.20;77.00
4757;DHT22;2392;52.578;13.426;2022-08-21T14:01:59;26.20;78.60
4757;DHT22;2392;52.578;13.426;2022-08-21T14:04:33;26.10;79.30
4757;DHT22;2392;52.578;13.426;2022-08-21T14:07:02;26.10;79.70
4757;DHT22;2392;52.578;13.426;2022-08-21T14:09:32;26.10;81.00
4757;DHT22;2392;52.578;13.426;2022-08-21T14:12:11;26.20;80.60
4757;DHT22;2392;52.578;13.426;2022-08-21T14:14:41;26.30;80.90
4757;DHT22;2392;52.578;13.426;2022-08-21T14:17:16;26.60;81.70
4757;DHT22;2392;52.578;13.426;2022-08-21T14:19:52;26.70;80.70
4757;DHT22;2392;52.578;13.426;2022-08-21T14:22:27;27.00;80.40
4757;DHT22;2392;52.578;13.426;2022-08-21T14:25:00;27.20;79.90
4757;DHT22;2392;52.578;13.426;2022-08-21T14:27:29;27.30;80.30
4757;DHT22;2392;52.578;13.426;2022-08-21T14:30:00;27.40;80.00
4757;DHT22;2392;52.578;13.426;2022-08-21T14:32:29;27.60;79.80
4757;DHT22;2392;52.578;13.426;2022-08-21T14:34:56;27.80;78.90
4757;DHT22;2392;52.578;13.426;2022-08-21T14:37:24;28.00;77.60
4757;DHT22;2392;52.578;13.426;2022-08-21T14:39:51;28.00;78.10
4757;DHT22;2392;52.578;13.426;2022-08-21T14:42:18;27.90;77.30
4757;DHT22;2392;52.578;13.426;2022-08-21T14:44:45;27.90;77.00
4757;DHT22;2392;52.578;13.426;2022-08-21T14:47:14;27.70;77.50
4757;DHT22;2392;52.578;13.426;2022-08-21T14:49:41;27.30;78.00
4757;DHT22;2392;52.578;13.426;2022-08-21T14:52:08;27.10;78.50
4757;DHT22;2392;52.578;13.426;2022-08-21T14:54:35;26.80;79.50
4757;DHT22;2392;52.578;13.426;2022-08-21T14:57:05;26.60;79.00
4757;DHT22;2392;52.578;13.426;2022-08-21T14:59:34;26.30;79.80
4757;DHT22;2392;52.578;13.426;2022-08-21T15:02:03;26.10;80.60
4757;DHT22;2392;52.578;13.426;2022-08-21T15:04:31;25.90;81.60
4757;DHT22;2392;52.578;13.426;2022-08-21T15:06:59;25.70;81.80
4757;DHT22;2392;52.578;13.426;2022-08-21T15:09:26;25.60;82.70
4757;DHT22;2392;52.578;13.426;2022-08-21T15:11:56;25.50;82.10
4757;DHT22;2392;52.578;13.426;2022-08-21T15:14:26;25.40;83.20
4757;DHT22;2392;52.578;13.426;2022-08-21T15:16:54;25.30;84.10
4757;DHT22;2392;52.578;13.426;2022-08-21T15:19:21;25.10;84.70
4757;DHT22;2392;52.578;13.426;2022-08-21T15:21:49;25.10;85.00
4757;DHT22;2392;52.578;13.426;2022-08-21T15:24:16;25.00;85.10
4757;DHT22;2392;52.578;13.426;2022-08-21T15:26:43;24.90;85.20
4757;DHT22;2392;52.578;13.426;2022-08-21T15:29:11;24.90;85.20
4757;DHT22;2392;52.578;13.426;2022-08-21T15:31:50;24.80;84.80
4757;DHT22;2392;52.578;13.426;2022-08-21T15:34:17;24.70;84.90
4757;DHT22;2392;52.578;13.426;2022-08-21T15:36:45;24.70;85.50
4757;DHT22;2392;52.578;13.426;2022-08-21T15:39:13;24.60;85.50
4757;DHT22;2392;52.578;13.426;2022-08-21T15:41:40;24.50;86.30
4757;DHT22;2392;52.578;13.426;2022-08-21T15:44:09;24.50;86.50
4757;DHT22;2392;52.578;13.426;2022-08-21T15:46:38;24.50;86.20
4757;DHT22;2392;52.578;13.426;2022-08-21T15:49:05;24.50;86.70
4757;DHT22;2392;52.578;13.426;2022-08-21T15:51:33;24.50;85.60
4757;DHT22;2392;52.578;13.426;2022-08-21T15:54:00;24.50;86.50
4757;DHT22;2392;52.578;13.426;2022-08-21T15:56:33;24.50;86.70
4757;DHT22;2392;52.578;13.426;2022-08-21T15:59:03;24.50;87.10
4757;DHT22;2392;52.578;13.426;2022-08-21T16:01:30;24.50;86.30